sensor_id;sensor_type;location;lat;lon;timestamp;temperature;humidity
41756;DHT22;27435;48.480;9.258;2023-12-29T00:00:03;10.00;98.40
41756;DHT22;27435;48.480;9.258;2023-12-29T00:02:28;9.90;98.90
41756;DHT22;27435;48.480;9.258;2023-12-29T00:04:54;9.80;98.90
41756;DHT22;27435;48.480;9.258;2023-12-29T00:07:20;9.70;97.80
41756;DHT22;27435;48.480;9.258;2023-12-29T00:09:45;9.70;99.00
41756;DHT22;27435;48.480;9.258;2023-12-29T00:12:11;9.60;99.00
41756;DHT22;27435;48.480;9.258;2023-12-29T00:14:38;9.50;99.00
41756;DHT22;27435;48.480;9.258;2023-12-29T00:17:04;9.50;98.90
41756;DHT22;27435;48.480;9.258;2023-12-29T00:19:29;9.70;97.30
41756;DHT22;27435;48.480;9.258;2023-12-29T00:21:55;9.80;96.70
41756;DHT22;27435;48.480;9.258;2023-12-29T00:24:21;9.90;96.40
41756;DHT22;27435;48.480;9.258;2023-12-29T00:26:46;10.00;95.60
41756;DHT22;27435;48.480;9.258;2023-12-29T00:29:14;10.00;96.20
41756;DHT22;27435;48.480;9.258;2023-12-29T00:31:40;10.00;96.40
41756;DHT22;27435;48.480;9.258;2023-12-29T00:34:06;10.00;94.90
41756;DHT22;27435;48.480;9.258;2023-12-29T00:36:32;10.10;93.60
41756;DHT22;27435;48.480;9.258;2023-12-29T00:38:58;10.20;93.60
41756;DHT22;27435;48.480;9.258;2023-12-29T00:41:23;10.20;92.70
41756;DHT22;27435;48.480;9.258;2023-12-29T00:43:49;10.30;93.10
41756;DHT22;27435;48.480;9.258;2023-12-29T00:46:15;10.30;93.00
41756;DHT22;27435;48.480;9.258;2023-12-29T00:48:43;10.30;92.30
41756;DHT22;27435;48.480;9.258;2023-12-29T00:51:09;10.30;92.20
41756;DHT22;27435;48.480;9.258;2023-12-29T00:53:35;10.40;90.90
41756;DHT22;27435;48.480;9.258;2023-12-29T00:56:01;10.40;91.10
41756;DHT22;27435;48.480;9.258;2023-12-29T00:58:27;10.50;91.10
41756;DHT22;27435;48.480;9.258;2023-12-29T01:00:52;10.50;90.10
41756;DHT22;27435;48.480;9.258;2023-12-29T01:03:18;10.60;90.10
41756;DHT22;27435;48.480;9.258;2023-12-29T01:05:45;10.60;90.20
41756;DHT22;27435;48.480;9.258;2023-12-29T01:08:11;10.60;90.00
41756;DHT22;27435;48.480;9.258;2023-12-29T01:10:36;10.70;90.00
41756;DHT22;27435;48.480;9.258;2023-12-29T01:13:10;10.70;90.30
41756;DHT22;27435;48.480;9.258;2023-12-29T01:18:47;10.70;89.80
41756;DHT22;27435;48.480;9.258;2023-12-29T01:21:21;10.70;90.50
41756;DHT22;27435;48.480;9.258;2023-12-29T01:23:48;10.60;91.50
41756;DHT22;27435;48.480;9.258;2023-12-29T01:26:14;10.60;93.30
41756;DHT22;27435;48.480;9.258;2023-12-29T01:28:40;10.50;95.30
41756;DHT22;27435;48.480;9.258;2023-12-29T01:31:05;10.40;95.50
41756;DHT22;27435;48.480;9.258;2023-12-29T01:33:31;10.40;96.20
41756;DHT22;27435;48.480;9.258;2023-12-29T01:35:57;10.30;95.80
41756;DHT22;27435;48.480;9.258;2023-12-29T01:38:22;10.30;95.90
41756;DHT22;27435;48.480;9.258;2023-12-29T01:40:48;10.30;96.30
41756;DHT22;27435;48.480;9.258;2023-12-29T01:43:19;10.30;95.80
41756;DHT22;27435;48.480;9.258;2023-12-29T01:45:45;10.30;95.20
41756;DHT22;27435;48.480;9.258;2023-12-29T01:48:10;10.30;95.50
41756;DHT22;27435;48.480;9.258;2023-12-29T01:50:36;10.30;96.20
41756;DHT22;27435;48.480;9.258;2023-12-29T01:53:03;10.30;96.60
41756;DHT22;27435;48.480;9.258;2023-12-29T01:55:29;10.30;96.90
41756;DHT22;27435;48.480;9.258;2023-12-29T01:57:56;10.20;96.90
41756;DHT22;27435;48.480;9.258;2023-12-29T02:00:21;10.20;97.20
41756;DHT22;27435;48.480;9.258;2023-12-29T02:02:47;10.30;97.40
41756;DHT22;27435;48.480;9.258;2023-12-29T02:05:14;10.10;97.40
41756;DHT22;27435;48.480;9.258;2023-12-29T02:07:43;10.20;97.80
41756;DHT22;27435;48.480;9.258;2023-12-29T02:10:09;10.20;97.10
41756;DHT22;27435;48.480;9.258;2023-12-29T02:12:39;10.20;97.70
41756;DHT22;27435;48.480;9.258;2023-12-29T02:15:05;10.10;97.90
41756;DHT22;27435;48.480;9.258;2023-12-29T02:17:38;10.10;98.50
41756;DHT22;27435;48.480;9.258;2023-12-29T02:20:05;10.10;98.60
41756;DHT22;27435;48.480;9.258;2023-12-29T02:22:32;10.00;99.00
41756;DHT22;27435;48.480;9.258;2023-12-29T02:24:58;9.90;99.00
41756;DHT22;27435;48.480;9.258;2023-12-29T02:33:19;9.90;99.00
41756;DHT22;27435;48.480;9.258;2023-12-29T02:35:46;9.90;99.00
41756;DHT22;27435;48.480;9.258;2023-12-29T02:38:13;9.90;99.00
41756;DHT22;27435;48.480;9.258;2023-12-29T02:40:39;9.90;99.00
41756;DHT22;27435;48.480;9.258;2023-12-29T02:43:04;9.90;99.00
41756;DHT22;27435;48.480;9.258;2023-12-29T02:45:30;9.90;99.00
41756;DHT22;27435;48.480;9.258;2023-12-29T02:47:55;10.00;99.00
41756;DHT22;27435;48.480;9.258;2023-12-29T02:50:21;10.00;99.00
41756;DHT22;27435;48.480;9.258;2023-12-29T02:52:47;10.00;99.00
41756;DHT22;27435;48.480;9.258;2023-12-29T02:55:12;9.90;99.00
41756;DHT22;27435;48.480;9.258;2023-12-29T02:57:38;10.00;98.80
41756;DHT22;27435;48.480;9.258;2023-12-29T03:00:05;10.00;98.40
41756;DHT22;27435;48.480;9.258;2023-12-29T03:02:31;10.00;98.50
41756;DHT22;27435;48.480;9.258;2023-12-29T03:04:56;10.00;97.60
41756;DHT22;27435;48.480;9.258;2023-12-29T03:07:22;10.10;97.50
41756;DHT22;27435;48.480;9.258;2023-12-29T03:09:48;10.10;97.50
41756;DHT22;27435;48.480;9.258;2023-12-29T03:12:13;10.10;97.30
41756;DHT22;27435;48.480;9.258;2023-12-29T03:14:39;10.10;97.40
41756;DHT22;27435;48.480;9.258;2023-12-29T03:17:05;10.10;97.70
41756;DHT22;27435;48.480;9.258;2023-12-29T03:19:30;10.10;98.30
41756;DHT22;27435;48.480;9.258;2023-12-29T03:21:56;10.10;98.60
41756;DHT22;27435;48.480;9.258;2023-12-29T03:24:21;10.00;99.00
41756;DHT22;27435;48.480;9.258;2023-12-29T03:26:47;10.00;99.00
41756;DHT22;27435;48.480;9.258;2023-12-29T03:29:13;9.90;99.00
41756;DHT22;27435;48.480;9.258;2023-12-29T03:31:39;9.90;99.00
41756;DHT22;27435;48.480;9.258;2023-12-29T03:34:07;9.80;99.00
41756;DHT22;27435;48.480;9.258;2023-12-29T03:36:33;9.80;99.00
41756;DHT22;27435;48.480;9.258;2023-12-29T03:38:58;9.80;99.00
41756;DHT22;27435;48.480;9.258;2023-12-29T03:41:24;9.80;99.00
41756;DHT22;27435;48.480;9.258;2023-12-29T03:43:50;9.70;99.00
41756;DHT22;27435;48.480;9.258;2023-12-29T03:46:22;9.60;99.00
41756;DHT22;27435;48.480;9.258;2023-12-29T03:48:48;9.60;99.00
41756;DHT22;27435;48.480;9.258;2023-12-29T03:51:14;9.50;99.00
41756;DHT22;27435;48.480;9.258;2023-12-29T03:53:40;9.50;99.00
41756;DHT22;27435;48.480;9.258;2023-12-29T03:56:15;9.50;99.00
41756;DHT22;27435;48.480;9.258;2023-12-29T03:58:45;9.50;99.00
41756;DHT22;27435;48.480;9.258;2023-12-29T04:01:14;9.50;99.00
41756;DHT22;27435;48.480;9.258;2023-12-29T04:03:41;9.50;99.00
41756;DHT22;27435;48.480;9.258;2023-12-29T04:06:07;9.60;99.00
41756;DHT22;27435;48.480;9.258;2023-12-29T04:08:34;9.60;99.00
41756;DHT22;27435;48.480;9.258;2023-12-29T04:10:59;9.70;99.00
41756;DHT22;27435;48.480;9.258;2023-12-29T04:13:25;9.70;99.00
41756;DHT22;27435;48.480;9.258;2023-12-29T04:15:51;9.70;99.00
41756;DHT22;27435;48.480;9.258;2023-12-29T04:18:17;9.70;99.00
41756;DHT22;27435;48.480;9.258;2023-12-29T04:20:43;9.80;99.00
41756;DHT22;27435;48.480;9.258;2023-12-29T04:23:09;9.80;99.00
41756;DHT22;27435;48.480;9.258;2023-12-29T04:25:34;9.80;99.00
41756;DHT22;27435;48.480;9.258;2023-12-29T04:28:00;9.90;99.00
41756;DHT22;27435;48.480;9.258;2023-12-29T04:30:26;9.90;99.00
41756;DHT22;27435;48.480;9.258;2023-12-29T04:32:51;10.00;99.00
41756;DHT22;27435;48.480;9.258;2023-12-29T04:35:17;10.00;99.00
41756;DHT22;27435;48.480;9.258;2023-12-29T04:37:44;10.00;99.00
41756;DHT22;27435;48.480;9.258;2023-12-29T04:40:12;10.00;99.00
41756;DHT22;27435;48.480;9.258;2023-12-29T04:42:38;10.00;99.00
41756;DHT22;27435;48.480;9.258;2023-12-29T04:45:04;10.00;99.00
41756;DHT22;27435;48.480;9.258;2023-12-29T04:47:30;10.00;99.00
41756;DHT22;27435;48.480;9.258;2023-12-29T04:49:56;10.00;99.00
41756;DHT22;27435;48.480;9.258;2023-12-29T04:52:22;9.90;99.00
41756;DHT22;27435;48.480;9.258;2023-12-29T04:54:48;9.90;99.00
41756;DHT22;27435;48.480;9.258;2023-12-29T04:57:14;9.80;99.00
41756;DHT22;27435;48.480;9.258;2023-12-29T04:59:39;9.80;99.00
41756;DHT22;27435;48.480;9.258;2023-12-29T05:02:05;9.90;99.00
41756;DHT22;27435;48.480;9.258;2023-12-29T05:04:31;9.90;99.00
41756;DHT22;27435;48.480;9.258;2023-12-29T05:06:57;10.00;99.00
41756;DHT22;27435;48.480;9.258;2023-12-29T05:09:22;10.00;99.00
41756;DHT22;27435;48.480;9.258;2023-12-29T05:11:48;10.00;99.00
41756;DHT22;27435;48.480;9.258;2023-12-29T05:14:14;9.90;99.00
41756;DHT22;27435;48.480;9.258;2023-12-29T05:16:42;9.80;99.00
41756;DHT22;27435;48.480;9.258;2023-12-29T05:19:07;9.90;99.00
41756;DHT22;27435;48.480;9.258;2023-12-29T05:21:33;9.80;99.00
41756;DHT22;27435;48.480;9.258;2023-12-29T05:23:59;9.70;99.00
41756;DHT22;27435;48.480;9.258;2023-12-29T05:26:24;9.80;99.00
41756;DHT22;27435;48.480;9.258;2023-12-29T05:28:50;9.80;99.00
41756;DHT22;27435;48.480;9.258;2023-12-29T05:31:16;9.80;99.00
41756;DHT22;27435;48.480;9.258;2023-12-29T05:33:43;9.80;99.00
41756;DHT22;27435;48.480;9.258;2023-12-29T05:36:10;9.90;99.00
41756;DHT22;27435;48.480;9.258;2023-12-29T05:38:36;9.90;99.00
41756;DHT22;27435;48.480;9.258;2023-12-29T05:41:03;10.00;99.00
41756;DHT22;27435;48.480;9.258;2023-12-29T05:43:31;10.00;99.00
41756;DHT22;27435;48.480;9.258;2023-12-29T05:45:58;10.00;99.00
41756;DHT22;27435;48.480;9.258;2023-12-29T05:48:24;9.90;99.00
41756;DHT22;27435;48.480;9.258;2023-12-29T05:50:50;9.90;99.00
41756;DHT22;27435;48.480;9.258;2023-12-29T05:53:16;9.80;99.00
41756;DHT22;27435;48.480;9.258;2023-12-29T05:55:42;9.90;99.00
41756;DHT22;27435;48.480;9.258;2023-12-29T05:58:08;9.90;99.00
41756;DHT22;27435;48.480;9.258;2023-12-29T06:00:35;10.00;99.00
41756;DHT22;27435;48.480;9.258;2023-12-29T06:03:00;10.00;99.00
41756;DHT22;27435;48.480;9.258;2023-12-29T06:05:26;10.00;99.00
41756;DHT22;27435;48.480;9.258;2023-12-29T06:07:52;10.00;99.00
41756;DHT22;27435;48.480;9.258;2023-12-29T06:10:17;10.10;99.00
41756;DHT22;27435;48.480;9.258;2023-12-29T06:12:43;10.10;99.00
41756;DHT22;27435;48.480;9.258;2023-12-29T06:15:09;10.10;99.00
41756;DHT22;27435;48.480;9.258;2023-12-29T06:17:34;10.20;99.00
41756;DHT22;27435;48.480;9.258;2023-12-29T06:20:01;10.20;99.00
41756;DHT22;27435;48.480;9.258;2023-12-29T06:22:28;10.20;99.00
41756;DHT22;27435;48.480;9.258;2023-12-29T06:24:53;10.30;99.00
41756;DHT22;27435;48.480;9.258;2023-12-29T06:27:19;10.30;99.00
41756;DHT22;27435;48.480;9.258;2023-12-29T06:29:45;10.30;99.00
41756;DHT22;27435;48.480;9.258;2023-12-29T06:32:10;10.30;99.00
41756;DHT22;27435;48.480;9.258;2023-12-29T06:34:36;10.40;99.00
41756;DHT22;27435;48.480;9.258;2023-12-29T06:37:01;10.40;99.00
41756;DHT22;27435;48.480;9.258;2023-12-29T06:39:27;10.40;99.00
41756;DHT22;27435;48.480;9.258;2023-12-29T06:41:53;10.50;99.00
41756;DHT22;27435;48.480;9.258;2023-12-29T06:44:18;10.40;99.00
41756;DHT22;27435;48.480;9.258;2023-12-29T06:46:44;10.40;99.00
41756;DHT22;27435;48.480;9.258;2023-12-29T06:49:10;10.40;99.00
41756;DHT22;27435;48.480;9.258;2023-12-29T06:51:35;10.40;99.00
41756;DHT22;27435;48.480;9.258;2023-12-29T06:54:01;10.40;99.00
41756;DHT22;27435;48.480;9.258;2023-12-29T06:56:27;10.40;99.00
41756;DHT22;27435;48.480;9.258;2023-12-29T06:58:53;10.30;99.00
41756;DHT22;27435;48.480;9.258;2023-12-29T07:01:19;10.30;99.00
41756;DHT22;27435;48.480;9.258;2023-12-29T07:03:44;10.30;99.00
41756;DHT22;27435;48.480;9.258;2023-12-29T07:06:10;10.30;99.00
41756;DHT22;27435;48.480;9.258;2023-12-29T07:08:36;10.20;99.00
41756;DHT22;27435;48.480;9.258;2023-12-29T07:11:02;10.10;99.00
41756;DHT22;27435;48.480;9.258;2023-12-29T07:13:28;10.10;99.00
41756;DHT22;27435;48.480;9.258;2023-12-29T07:15:54;10.00;99.00
41756;DHT22;27435;48.480;9.258;2023-12-29T07:18:20;9.90;99.00
41756;DHT22;27435;48.480;9.258;2023-12-29T07:20:46;9.80;99.00
41756;DHT22;27435;48.480;9.258;2023-12-29T07:23:11;9.80;99.00
41756;DHT22;27435;48.480;9.258;2023-12-29T07:25:37;9.80;99.00
41756;DHT22;27435;48.480;9.258;2023-12-29T07:28:03;9.70;99.00
41756;DHT22;27435;48.480;9.258;2023-12-29T07:30:28;9.70;99.00
41756;DHT22;27435;48.480;9.258;2023-12-29T07:32:54;9.70;99.00
41756;DHT22;27435;48.480;9.258;2023-12-29T07:35:19;9.70;99.00
41756;DHT22;27435;48.480;9.258;2023-12-29T07:37:46;9.70;99.00
41756;DHT22;27435;48.480;9.258;2023-12-29T07:40:13;9.70;99.00
41756;DHT22;27435;48.480;9.258;2023-12-29T07:42:42;9.80;99.00
41756;DHT22;27435;48.480;9.258;2023-12-29T07:45:09;9.90;99.00
41756;DHT22;27435;48.480;9.258;2023-12-29T07:47:34;9.90;99.00
41756;DHT22;27435;48.480;9.258;2023-12-29T07:50:00;10.00;99.00
41756;DHT22;27435;48.480;9.258;2023-12-29T07:52:27;10.10;99.00
41756;DHT22;27435;48.480;9.258;2023-12-29T07:54:52;10.10;99.00
41756;DHT22;27435;48.480;9.258;2023-12-29T07:57:18;10.20;99.00
41756;DHT22;27435;48.480;9.258;2023-12-29T07:59:43;10.20;99.00
41756;DHT22;27435;48.480;9.258;2023-12-29T08:02:09;10.30;99.00
41756;DHT22;27435;48.480;9.258;2023-12-29T08:04:35;10.40;99.00
41756;DHT22;27435;48.480;9.258;2023-12-29T08:07:01;10.40;99.00
41756;DHT22;27435;48.480;9.258;2023-12-29T08:09:27;10.30;99.00
41756;DHT22;27435;48.480;9.258;2023-12-29T08:11:52;10.20;99.00
41756;DHT22;27435;48.480;9.258;2023-12-29T08:14:18;10.20;99.00
41756;DHT22;27435;48.480;9.258;2023-12-29T08:16:44;10.30;99.00
41756;DHT22;27435;48.480;9.258;2023-12-29T08:19:10;10.30;99.00
41756;DHT22;27435;48.480;9.258;2023-12-29T08:21:38;10.40;99.00
41756;DHT22;27435;48.480;9.258;2023-12-29T08:24:04;10.50;99.00
41756;DHT22;27435;48.480;9.258;2023-12-29T08:26:30;10.70;99.00
41756;DHT22;27435;48.480;9.258;2023-12-29T08:28:55;10.90;99.00
41756;DHT22;27435;48.480;9.258;2023-12-29T08:31:21;11.00;98.20
41756;DHT22;27435;48.480;9.258;2023-12-29T08:33:51;11.00;98.30
41756;DHT22;27435;48.480;9.258;2023-12-29T08:36:20;11.10;97.90
41756;DHT22;27435;48.480;9.258;2023-12-29T08:38:46;11.20;97.20
41756;DHT22;27435;48.480;9.258;2023-12-29T08:41:13;11.30;97.00
41756;DHT22;27435;48.480;9.258;2023-12-29T08:43:39;11.40;96.80
41756;DHT22;27435;48.480;9.258;2023-12-29T08:46:05;11.40;96.20
41756;DHT22;27435;48.480;9.258;2023-12-29T08:48:31;11.50;95.90
41756;DHT22;27435;48.480;9.258;2023-12-29T08:50:56;11.50;95.70
41756;DHT22;27435;48.480;9.258;2023-12-29T08:53:22;11.60;95.20
41756;DHT22;27435;48.480;9.258;2023-12-29T08:55:48;11.80;94.90
41756;DHT22;27435;48.480;9.258;2023-12-29T08:58:13;11.80;94.10
41756;DHT22;27435;48.480;9.258;2023-12-29T09:00:39;12.00;93.50
41756;DHT22;27435;48.480;9.258;2023-12-29T09:03:05;12.10;93.20
41756;DHT22;27435;48.480;9.258;2023-12-29T09:05:30;12.30;92.20
41756;DHT22;27435;48.480;9.258;2023-12-29T09:07:56;12.40;91.90
41756;DHT22;27435;48.480;9.258;2023-12-29T09:10:21;12.50;91.30
41756;DHT22;27435;48.480;9.258;2023-12-29T09:12:48;12.50;90.40
41756;DHT22;27435;48.480;9.258;2023-12-29T09:15:14;12.50;90.60
41756;DHT22;27435;48.480;9.258;2023-12-29T09:17:40;12.50;90.10
41756;DHT22;27435;48.480;9.258;2023-12-29T09:20:06;12.70;89.70
41756;DHT22;27435;48.480;9.258;2023-12-29T09:22:33;12.50;89.00
41756;DHT22;27435;48.480;9.258;2023-12-29T09:24:59;12.50;89.30
41756;DHT22;27435;48.480;9.258;2023-12-29T09:27:25;12.30;88.50
41756;DHT22;27435;48.480;9.258;2023-12-29T09:29:50;12.10;90.00
41756;DHT22;27435;48.480;9.258;2023-12-29T09:32:16;12.20;89.30
41756;DHT22;27435;48.480;9.258;2023-12-29T09:34:42;12.30;89.20
41756;DHT22;27435;48.480;9.258;2023-12-29T09:37:08;12.20;88.60
41756;DHT22;27435;48.480;9.258;2023-12-29T09:39:34;12.20;89.10
41756;DHT22;27435;48.480;9.258;2023-12-29T09:42:01;12.20;89.40
41756;DHT22;27435;48.480;9.258;2023-12-29T09:44:31;12.30;89.10
41756;DHT22;27435;48.480;9.258;2023-12-29T09:47:01;12.30;88.60
41756;DHT22;27435;48.480;9.258;2023-12-29T09:49:31;12.40;88.90
41756;DHT22;27435;48.480;9.258;2023-12-29T09:52:02;12.30;88.40
41756;DHT22;27435;48.480;9.258;2023-12-29T09:54:29;12.30;88.80
41756;DHT22;27435;48.480;9.258;2023-12-29T09:56:56;12.30;88.70
41756;DHT22;27435;48.480;9.258;2023-12-29T09:59:22;12.40;88.10
41756;DHT22;27435;48.480;9.258;2023-12-29T10:01:50;12.30;88.70
41756;DHT22;27435;48.480;9.258;2023-12-29T10:04:17;12.40;88.00
41756;DHT22;27435;48.480;9.258;2023-12-29T10:06:44;12.30;88.00
41756;DHT22;27435;48.480;9.258;2023-12-29T10:09:12;12.10;88.60
41756;DHT22;27435;48.480;9.258;2023-12-29T10:11:40;12.00;89.30
41756;DHT22;27435;48.480;9.258;2023-12-29T10:14:27;12.00;89.30
41756;DHT22;27435;48.480;9.258;2023-12-29T10:17:27;11.90;88.90
41756;DHT22;27435;48.480;9.258;2023-12-29T10:20:06;11.90;89.40
41756;DHT22;27435;48.480;9.258;2023-12-29T10:25:04;11.90;89.50
41756;DHT22;27435;48.480;9.258;2023-12-29T10:27:30;11.80;89.20
41756;DHT22;27435;48.480;9.258;2023-12-29T10:29:56;11.90;89.60
41756;DHT22;27435;48.480;9.258;2023-12-29T10:32:22;11.90;89.60
41756;DHT22;27435;48.480;9.258;2023-12-29T10:34:47;11.90;89.70
41756;DHT22;27435;48.480;9.258;2023-12-29T10:37:22;11.90;88.50
41756;DHT22;27435;48.480;9.258;2023-12-29T10:39:57;11.90;88.90
41756;DHT22;27435;48.480;9.258;2023-12-29T10:42:23;11.80;88.80
41756;DHT22;27435;48.480;9.258;2023-12-29T10:45:04;11.70;89.40
41756;DHT22;27435;48.480;9.258;2023-12-29T10:47:31;11.70;89.20
41756;DHT22;27435;48.480;9.258;2023-12-29T10:49:59;11.60;89.30
41756;DHT22;27435;48.480;9.258;2023-12-29T10:52:24;11.70;89.00
41756;DHT22;27435;48.480;9.258;2023-12-29T10:55:07;11.80;88.40
41756;DHT22;27435;48.480;9.258;2023-12-29T10:57:33;11.80;88.40
41756;DHT22;27435;48.480;9.258;2023-12-29T10:59:59;11.90;88.20
41756;DHT22;27435;48.480;9.258;2023-12-29T11:02:28;12.00;87.90
41756;DHT22;27435;48.480;9.258;2023-12-29T11:05:07;11.90;87.80
41756;DHT22;27435;48.480;9.258;2023-12-29T11:10:06;11.70;89.20
41756;DHT22;27435;48.480;9.258;2023-12-29T11:12:34;11.60;89.20
41756;DHT22;27435;48.480;9.258;2023-12-29T11:15:02;11.60;89.40
41756;DHT22;27435;48.480;9.258;2023-12-29T11:17:30;11.70;89.10
41756;DHT22;27435;48.480;9.258;2023-12-29T11:19:58;11.90;88.50
41756;DHT22;27435;48.480;9.258;2023-12-29T11:22:27;12.00;88.50
41756;DHT22;27435;48.480;9.258;2023-12-29T11:24:53;12.20;88.20
41756;DHT22;27435;48.480;9.258;2023-12-29T11:27:19;12.40;86.90
41756;DHT22;27435;48.480;9.258;2023-12-29T11:29:47;12.50;86.40
41756;DHT22;27435;48.480;9.258;2023-12-29T11:32:18;12.60;85.70
41756;DHT22;27435;48.480;9.258;2023-12-29T11:34:51;12.40;86.10
41756;DHT22;27435;48.480;9.258;2023-12-29T11:38:08;12.30;86.90
41756;DHT22;27435;48.480;9.258;2023-12-29T11:40:33;12.10;88.00
41756;DHT22;27435;48.480;9.258;2023-12-29T11:43:06;12.10;88.40
41756;DHT22;27435;48.480;9.258;2023-12-29T11:45:34;12.20;88.60
41756;DHT22;27435;48.480;9.258;2023-12-29T11:48:01;12.10;89.40
41756;DHT22;27435;48.480;9.258;2023-12-29T11:50:32;12.00;89.90
41756;DHT22;27435;48.480;9.258;2023-12-29T11:52:59;12.00;90.20
41756;DHT22;27435;48.480;9.258;2023-12-29T11:55:30;12.10;90.40
41756;DHT22;27435;48.480;9.258;2023-12-29T11:57:57;12.20;90.70
41756;DHT22;27435;48.480;9.258;2023-12-29T12:00:44;12.20;90.90
41756;DHT22;27435;48.480;9.258;2023-12-29T12:03:25;12.30;91.00
41756;DHT22;27435;48.480;9.258;2023-12-29T12:05:51;12.50;90.70
41756;DHT22;27435;48.480;9.258;2023-12-29T12:08:27;12.50;89.80
41756;DHT22;27435;48.480;9.258;2023-12-29T12:10:54;12.20;91.10
41756;DHT22;27435;48.480;9.258;2023-12-29T12:13:42;12.20;91.40
41756;DHT22;27435;48.480;9.258;2023-12-29T12:16:08;12.20;91.20
41756;DHT22;27435;48.480;9.258;2023-12-29T12:18:34;12.00;91.80
41756;DHT22;27435;48.480;9.258;2023-12-29T12:21:00;12.00;91.60
41756;DHT22;27435;48.480;9.258;2023-12-29T12:23:32;11.90;91.50
41756;DHT22;27435;48.480;9.258;2023-12-29T12:26:01;12.00;91.20
41756;DHT22;27435;48.480;9.258;2023-12-29T12:28:26;12.00;90.30
41756;DHT22;27435;48.480;9.258;2023-12-29T12:30:57;11.90;90.40
41756;DHT22;27435;48.480;9.258;2023-12-29T12:33:30;11.80;89.90
41756;DHT22;27435;48.480;9.258;2023-12-29T12:36:01;11.90;89.90
41756;DHT22;27435;48.480;9.258;2023-12-29T12:38:26;11.70;88.40
41756;DHT22;27435;48.480;9.258;2023-12-29T12:40:52;11.80;88.40
41756;DHT22;27435;48.480;9.258;2023-12-29T12:43:18;11.60;87.80
41756;DHT22;27435;48.480;9.258;2023-12-29T12:45:54;11.50;88.70
41756;DHT22;27435;48.480;9.258;2023-12-29T12:48:28;11.50;88.30
41756;DHT22;27435;48.480;9.258;2023-12-29T12:50:56;11.50;88.30
41756;DHT22;27435;48.480;9.258;2023-12-29T12:53:23;11.60;88.50
41756;DHT22;27435;48.480;9.258;2023-12-29T12:55:49;11.60;88.60
41756;DHT22;27435;48.480;9.258;2023-12-29T12:58:20;11.70;88.40
41756;DHT22;27435;48.480;9.258;2023-12-29T13:00:46;11.80;87.70
41756;DHT22;27435;48.480;9.258;2023-12-29T13:03:14;11.80;87.80
41756;DHT22;27435;48.480;9.258;2023-12-29T13:05:46;11.80;87.60
41756;DHT22;27435;48.480;9.258;2023-12-29T13:08:12;11.80;87.80
41756;DHT22;27435;48.480;9.258;2023-12-29T13:10:45;11.70;88.30
41756;DHT22;27435;48.480;9.258;2023-12-29T13:13:11;11.50;88.90
41756;DHT22;27435;48.480;9.258;2023-12-29T13:15:57;11.50;89.70
41756;DHT22;27435;48.480;9.258;2023-12-29T13:18:28;11.50;89.10
41756;DHT22;27435;48.480;9.258;2023-12-29T13:20:54;11.40;88.20
41756;DHT22;27435;48.480;9.258;2023-12-29T13:23:19;11.40;88.50
41756;DHT22;27435;48.480;9.258;2023-12-29T13:25:46;11.30;89.40
41756;DHT22;27435;48.480;9.258;2023-12-29T13:28:13;11.30;88.70
41756;DHT22;27435;48.480;9.258;2023-12-29T13:30:39;11.40;88.80
41756;DHT22;27435;48.480;9.258;2023-12-29T13:33:42;11.50;89.00
41756;DHT22;27435;48.480;9.258;2023-12-29T13:36:25;11.50;88.30
41756;DHT22;27435;48.480;9.258;2023-12-29T13:38:58;11.40;87.70
41756;DHT22;27435;48.480;9.258;2023-12-29T13:41:25;11.40;87.80
41756;DHT22;27435;48.480;9.258;2023-12-29T13:43:55;11.40;87.40
41756;DHT22;27435;48.480;9.258;2023-12-29T13:46:21;11.50;87.50
41756;DHT22;27435;48.480;9.258;2023-12-29T13:48:47;11.50;88.10
41756;DHT22;27435;48.480;9.258;2023-12-29T13:51:16;11.50;88.30
41756;DHT22;27435;48.480;9.258;2023-12-29T13:53:42;11.60;87.90
41756;DHT22;27435;48.480;9.258;2023-12-29T13:56:08;11.60;86.90
41756;DHT22;27435;48.480;9.258;2023-12-29T13:58:34;11.40;85.80
41756;DHT22;27435;48.480;9.258;2023-12-29T14:01:00;11.40;85.40
41756;DHT22;27435;48.480;9.258;2023-12-29T14:03:50;11.40;83.80
41756;DHT22;27435;48.480;9.258;2023-12-29T14:06:39;11.40;84.10
41756;DHT22;27435;48.480;9.258;2023-12-29T14:09:06;11.30;84.50
41756;DHT22;27435;48.480;9.258;2023-12-29T14:11:32;11.30;84.60
41756;DHT22;27435;48.480;9.258;2023-12-29T14:13:58;11.40;84.40
41756;DHT22;27435;48.480;9.258;2023-12-29T14:16:23;11.40;84.10
41756;DHT22;27435;48.480;9.258;2023-12-29T14:18:54;11.20;84.00
41756;DHT22;27435;48.480;9.258;2023-12-29T14:21:23;11.10;84.30
41756;DHT22;27435;48.480;9.258;2023-12-29T14:24:11;11.00;84.10
41756;DHT22;27435;48.480;9.258;2023-12-29T14:29:21;11.00;84.50
41756;DHT22;27435;48.480;9.258;2023-12-29T14:31:48;11.00;84.40
41756;DHT22;27435;48.480;9.258;2023-12-29T14:34:16;11.00;84.40
41756;DHT22;27435;48.480;9.258;2023-12-29T14:36:42;11.10;84.40
41756;DHT22;27435;48.480;9.258;2023-12-29T14:39:09;11.20;84.30
41756;DHT22;27435;48.480;9.258;2023-12-29T14:41:38;11.00;84.30
41756;DHT22;27435;48.480;9.258;2023-12-29T14:44:04;10.90;84.80
41756;DHT22;27435;48.480;9.258;2023-12-29T14:46:30;11.00;84.80
41756;DHT22;27435;48.480;9.258;2023-12-29T14:48:59;11.00;84.30
41756;DHT22;27435;48.480;9.258;2023-12-29T14:51:24;11.10;84.60
41756;DHT22;27435;48.480;9.258;2023-12-29T14:53:50;10.90;84.70
41756;DHT22;27435;48.480;9.258;2023-12-29T14:56:16;10.90;85.20
41756;DHT22;27435;48.480;9.258;2023-12-29T14:58:42;10.80;85.60
41756;DHT22;27435;48.480;9.258;2023-12-29T15:01:08;10.70;86.00
41756;DHT22;27435;48.480;9.258;2023-12-29T15:03:34;10.60;86.60
41756;DHT22;27435;48.480;9.258;2023-12-29T15:06:01;10.40;87.10
41756;DHT22;27435;48.480;9.258;2023-12-29T15:08:27;10.20;87.00
41756;DHT22;27435;48.480;9.258;2023-12-29T15:10:57;10.10;87.70
41756;DHT22;27435;48.480;9.258;2023-12-29T15:13:23;10.10;88.10
41756;DHT22;27435;48.480;9.258;2023-12-29T15:15:50;10.10;87.70
41756;DHT22;27435;48.480;9.258;2023-12-29T15:18:15;10.00;87.90
41756;DHT22;27435;48.480;9.258;2023-12-29T15:20:42;10.10;87.90
41756;DHT22;27435;48.480;9.258;2023-12-29T15:23:08;9.90;87.90
41756;DHT22;27435;48.480;9.258;2023-12-29T15:25:34;9.80;88.30
41756;DHT22;27435;48.480;9.258;2023-12-29T15:27:59;9.80;88.70
41756;DHT22;27435;48.480;9.258;2023-12-29T15:30:25;9.80;88.90
41756;DHT22;27435;48.480;9.258;2023-12-29T15:32:51;9.70;89.00
41756;DHT22;27435;48.480;9.258;2023-12-29T15:35:16;9.70;89.30
41756;DHT22;27435;48.480;9.258;2023-12-29T15:37:42;9.50;89.50
41756;DHT22;27435;48.480;9.258;2023-12-29T15:40:08;9.50;90.10
41756;DHT22;27435;48.480;9.258;2023-12-29T15:42:33;9.40;90.20
41756;DHT22;27435;48.480;9.258;2023-12-29T15:44:59;9.30;90.40
41756;DHT22;27435;48.480;9.258;2023-12-29T15:47:25;9.30;90.50
41756;DHT22;27435;48.480;9.258;2023-12-29T15:49:51;9.30;90.70
41756;DHT22;27435;48.480;9.258;2023-12-29T15:52:16;9.30;90.70